Time;durP1;ratioP1;P1;durP2;ratioP2;P2;SDS_P1;SDS_P2;PMS_P1;PMS_P2;Temp;Humidity;BMP_temperature;BMP_pressure;BME280_temperature;BME280_humidity;BME280_pressure;Samples;Min_cycle;Max_cycle;Signal;HPM_P1;HPM_P2
2021/10/31 00:00:27;;;;;;;7.68;5.38;;;12.70;90.70;;;;;;5074407;28;20052;-84
2021/10/31 00:02:53;;;;;;;6.72;5.38;;;12.60;90.70;;;;;;5107025;28;20028;-83
2021/10/31 00:05:19;;;;;;;10.50;6.25;;;12.60;90.70;;;;;;5089762;28;20036;-83
2021/10/31 00:07:45;;;;;;;7.35;5.20;;;12.60;90.70;;;;;;5090309;28;20038;-83
2021/10/31 00:10:11;;;;;;;8.48;5.43;;;12.60;90.70;;;;;;5089950;28;20115;-83
2021/10/31 00:12:38;;;;;;;6.00;5.18;;;12.50;90.70;;;;;;5106927;28;20527;-83
2021/10/31 00:15:05;;;;;;;10.60;5.53;;;12.50;90.70;;;;;;5107027;28;20427;-83
2021/10/31 00:17:30;;;;;;;7.38;5.80;;;12.50;90.70;;;;;;5106866;28;20050;-83
2021/10/31 00:19:56;;;;;;;7.38;5.90;;;12.50;90.70;;;;;;5106563;28;20024;-83
2021/10/31 00:22:21;;;;;;;8.20;6.20;;;12.50;90.70;;;;;;5092460;28;20032;-83
2021/10/31 00:24:47;;;;;;;6.72;4.97;;;12.50;90.70;;;;;;5106486;28;20024;-84
2021/10/31 00:27:13;;;;;;;7.78;5.47;;;12.50;90.80;;;;;;5106657;28;20162;-85
2021/10/31 00:29:38;;;;;;;6.90;5.68;;;12.40;90.70;;;;;;5106394;28;20373;-83
2021/10/31 00:32:04;;;;;;;6.93;5.45;;;12.50;90.80;;;;;;5106263;28;20056;-83
2021/10/31 00:34:31;;;;;;;7.40;5.43;;;12.40;90.70;;;;;;5106359;28;20032;-83
2021/10/31 00:36:57;;;;;;;7.90;5.85;;;12.40;90.70;;;;;;5106423;28;20060;-83
2021/10/31 00:39:22;;;;;;;7.43;5.32;;;12.40;90.80;;;;;;5105888;28;20032;-83
2021/10/31 00:41:48;;;;;;;7.10;5.70;;;12.40;90.70;;;;;;5106067;28;20035;-83
2021/10/31 00:44:13;;;;;;;8.00;5.10;;;12.40;90.70;;;;;;5106123;28;20063;-82
2021/10/31 00:46:40;;;;;;;8.18;5.45;;;12.40;90.70;;;;;;5106496;28;20098;-83
2021/10/31 00:49:06;;;;;;;9.30;5.25;;;12.40;90.70;;;;;;5090342;28;20025;-83
2021/10/31 00:51:31;;;;;;;8.95;5.45;;;12.40;90.70;;;;;;5073639;28;20030;-83
2021/10/31 00:53:58;;;;;;;8.13;5.07;;;12.30;90.70;;;;;;5106834;28;20028;-83
2021/10/31 00:56:25;;;;;;;7.57;5.40;;;12.30;90.70;;;;;;5106480;28;20040;-82
2021/10/31 00:58:51;;;;;;;9.23;5.53;;;12.30;90.70;;;;;;5089385;28;20028;-83
2021/10/31 01:01:17;;;;;;;7.05;5.35;;;12.30;90.70;;;;;;5074164;28;20056;-83
2021/10/31 01:03:44;;;;;;;7.57;4.97;;;12.30;90.70;;;;;;5074110;28;20025;-83
2021/10/31 01:06:24;;;;;;;6.38;5.25;;;12.20;90.70;;;;;;5106388;28;20111;-83
2021/10/31 01:09:03;;;;;;;7.78;5.65;;;12.20;90.70;;;;;;5074071;28;20045;-82
2021/10/31 01:11:54;;;;;;;6.00;5.40;;;12.20;90.70;;;;;;5089697;28;20412;-83
2021/10/31 01:14:41;;;;;;;7.40;5.53;;;12.20;90.70;;;;;;5106688;28;20032;-83
2021/10/31 01:17:41;;;;;;;10.75;5.47;;;12.20;90.70;;;;;;5107179;28;20043;-83
2021/10/31 01:20:25;;;;;;;7.47;4.63;;;12.20;90.70;;;;;;5071114;28;20477;-82
2021/10/31 01:23:13;;;;;;;7.60;5.50;;;12.20;90.70;;;;;;5074341;28;20172;-83
2021/10/31 01:26:01;;;;;;;7.13;5.40;;;12.20;90.70;;;;;;5073942;28;20032;-82
2021/10/31 01:28:33;;;;;;;6.47;4.88;;;12.20;90.70;;;;;;5074468;28;20424;-81
2021/10/31 01:31:16;;;;;;;7.03;5.30;;;12.20;90.70;;;;;;5107689;28;20438;-83
2021/10/31 01:33:46;;;;;;;;;;;12.20;90.70;;;;;;5108118;28;20492;-82
2021/10/31 01:36:43;;;;;;;6.85;4.53;;;12.20;90.60;;;;;;5090765;28;19954;-82
2021/10/31 01:39:23;;;;;;;7.20;5.10;;;12.20;90.60;;;;;;5078729;28;20021;-82
2021/10/31 01:42:21;;;;;;;6.15;4.80;;;12.20;90.60;;;;;;5112475;28;20044;-83
2021/10/31 01:45:13;;;;;;;9.88;6.07;;;12.20;90.60;;;;;;5058751;28;20037;-84
2021/10/31 01:48:11;;;;;;;7.07;5.40;;;12.20;90.70;;;;;;5114649;28;20119;-84
2021/10/31 01:50:39;;;;;;;6.97;5.32;;;12.20;90.80;;;;;;5081388;28;20036;-83
2021/10/31 01:53:17;;;;;;;7.10;5.47;;;12.20;90.70;;;;;;5114035;28;20035;-81
2021/10/31 01:55:50;;;;;;;6.38;4.75;;;12.10;90.70;;;;;;5123850;28;20060;-82
2021/10/31 01:58:18;;;;;;;8.65;5.05;;;12.10;90.70;;;;;;5127126;28;20047;-82
2021/10/31 02:00:46;;;;;;;6.60;5.40;;;12.10;90.70;;;;;;5096478;28;20024;-82
2021/10/31 02:03:15;;;;;;;7.25;5.45;;;12.10;90.70;;;;;;5130575;28;20032;-81
2021/10/31 02:05:41;;;;;;;7.47;5.13;;;12.10;90.70;;;;;;5130409;28;20055;-82
2021/10/31 02:08:09;;;;;;;7.15;4.90;;;12.10;90.70;;;;;;5113259;28;20026;-82
2021/10/31 02:10:36;;;;;;;8.15;5.40;;;12.10;90.70;;;;;;5129088;28;20036;-83
2021/10/31 02:13:06;;;;;;;7.65;5.03;;;12.10;90.70;;;;;;5094576;28;20024;-84
2021/10/31 02:15:33;;;;;;;7.43;4.97;;;12.10;90.70;;;;;;5101902;28;20058;-83
2021/10/31 02:18:01;;;;;;;9.90;4.93;;;12.10;90.70;;;;;;5130193;28;20036;-82
2021/10/31 02:20:27;;;;;;;7.95;5.45;;;12.10;90.70;;;;;;5112933;28;20076;-82
2021/10/31 02:23:37;;;;;;;7.28;4.93;;;12.10;90.90;;;;;;5130174;28;20035;-82
2021/10/31 02:26:02;;;;;;;7.25;5.00;;;12.00;90.60;;;;;;5096124;28;20032;-82
2021/10/31 02:28:28;;;;;;;9.60;5.00;;;12.00;90.60;;;;;;5112336;28;20031;-82
2021/10/31 02:30:55;;;;;;;6.65;4.75;;;12.00;90.60;;;;;;5076405;28;20051;-83
2021/10/31 02:33:21;;;;;;;8.70;5.00;;;12.00;90.60;;;;;;5092009;28;20036;-82
2021/10/31 02:35:47;;;;;;;8.45;5.55;;;12.00;90.60;;;;;;5091512;28;20024;-82
2021/10/31 02:38:12;;;;;;;7.72;4.50;;;11.90;90.60;;;;;;5108021;28;20032;-82
2021/10/31 02:40:38;;;;;;;7.30;4.93;;;11.90;90.60;;;;;;5108553;28;20033;-82
2021/10/31 02:43:05;;;;;;;7.68;4.70;;;11.90;90.70;;;;;;5091384;28;20393;-82
2021/10/31 02:45:30;;;;;;;7.50;4.68;;;11.90;90.70;;;;;;5094189;28;20037;-82
2021/10/31 02:48:07;;;;;;;9.48;4.55;;;11.90;90.70;;;;;;5107991;28;20539;-83
2021/10/31 02:50:37;;;;;;;7.75;5.03;;;11.90;90.70;;;;;;5090173;28;20032;-83
2021/10/31 02:53:08;;;;;;;8.98;4.90;;;11.90;90.70;;;;;;5091144;28;20032;-82
2021/10/31 02:55:50;;;;;;;7.05;4.90;;;11.90;90.70;;;;;;5108156;28;20052;-82
2021/10/31 02:58:25;;;;;;;8.15;5.00;;;11.90;90.70;;;;;;5090863;28;20067;-83
2021/10/31 03:00:58;;;;;;;6.38;4.60;;;11.80;90.60;;;;;;5090790;28;20023;-82
2021/10/31 03:03:24;;;;;;;6.13;4.50;;;11.80;90.70;;;;;;5090844;28;20029;-82
2021/10/31 03:05:53;;;;;;;7.40;4.78;;;11.80;90.70;;;;;;5090891;28;20020;-82
2021/10/31 03:08:20;;;;;;;6.15;4.50;;;11.80;90.70;;;;;;5107890;28;20568;-82
2021/10/31 03:10:58;;;;;;;9.75;4.32;;;11.80;90.70;;;;;;5107863;28;20059;-82
2021/10/31 03:13:25;;;;;;;5.28;4.20;;;11.80;90.70;;;;;;5107659;28;20028;-82
2021/10/31 03:15:51;;;;;;;7.80;4.32;;;11.70;90.70;;;;;;5075065;28;20078;-83
2021/10/31 03:18:17;;;;;;;8.25;4.40;;;11.70;90.70;;;;;;5107684;28;20089;-83
2021/10/31 03:20:43;;;;;;;7.05;4.75;;;11.70;90.60;;;;;;5075213;28;20025;-82
2021/10/31 03:23:09;;;;;;;7.03;4.78;;;11.70;90.60;;;;;;5107549;28;20047;-83
2021/10/31 03:25:35;;;;;;;7.13;4.70;;;11.70;90.70;;;;;;5090684;28;20039;-83
2021/10/31 03:28:01;;;;;;;8.20;4.65;;;11.70;90.70;;;;;;5107681;28;20028;-82
2021/10/31 03:30:27;;;;;;;6.53;4.38;;;11.70;90.70;;;;;;5107715;28;20078;-82
2021/10/31 03:32:52;;;;;;;6.60;4.40;;;11.70;90.70;;;;;;5107482;28;20025;-82
2021/10/31 03:35:18;;;;;;;6.93;4.35;;;11.70;90.70;;;;;;5107477;28;20028;-82
2021/10/31 03:37:44;;;;;;;5.97;4.30;;;11.70;90.70;;;;;;5107164;28;20032;-82
2021/10/31 03:40:10;;;;;;;5.72;4.25;;;11.60;90.60;;;;;;5107385;28;20060;-82
2021/10/31 03:42:38;;;;;;;5.70;4.45;;;11.70;90.70;;;;;;5107115;28;20036;-83
2021/10/31 03:45:06;;;;;;;7.45;4.47;;;11.70;90.70;;;;;;5074577;28;20126;-82
2021/10/31 03:47:34;;;;;;;5.90;4.63;;;11.70;90.90;;;;;;5107236;28;20028;-83
2021/10/31 03:50:00;;;;;;;5.70;4.60;;;11.70;90.60;;;;;;5090285;28;20028;-83
2021/10/31 03:52:26;;;;;;;6.85;4.18;;;11.70;90.60;;;;;;5090107;28;20028;-82
2021/10/31 03:54:52;;;;;;;7.53;5.38;;;11.80;90.60;;;;;;5074313;28;20357;-82
2021/10/31 03:57:18;;;;;;;6.45;4.45;;;11.70;90.50;;;;;;5107091;28;20035;-83
2021/10/31 03:59:44;;;;;;;5.47;4.78;;;11.70;90.50;;;;;;5106812;28;20051;-83
2021/10/31 04:02:10;;;;;;;7.35;4.85;;;11.70;90.60;;;;;;5089715;28;20056;-83
2021/10/31 04:04:35;;;;;;;9.48;5.45;;;11.70;90.50;;;;;;5073051;28;20024;-83
2021/10/31 04:07:01;;;;;;;7.93;4.97;;;11.70;90.50;;;;;;5074363;28;20031;-84
2021/10/31 04:09:27;;;;;;;7.65;4.82;;;11.80;90.60;;;;;;5107027;28;20074;-83
2021/10/31 04:11:52;;;;;;;6.90;5.18;;;11.70;90.50;;;;;;5106764;28;20029;-83
2021/10/31 04:14:18;;;;;;;9.52;5.30;;;11.70;90.80;;;;;;5106692;28;20029;-83
2021/10/31 04:16:44;;;;;;;7.55;5.05;;;11.70;90.60;;;;;;5106815;28;20475;-83
2021/10/31 04:22:31;;;;;;;7.35;4.97;;;11.70;90.50;;;;;;5074503;28;20035;-83
2021/10/31 04:24:58;;;;;;;8.52;5.45;;;11.70;90.50;;;;;;5106852;28;20395;-82
2021/10/31 04:27:24;;;;;;;7.40;4.97;;;11.70;90.50;;;;;;5106373;28;20052;-83
2021/10/31 04:29:50;;;;;;;7.95;5.30;;;11.60;90.50;;;;;;5074106;28;20044;-84
2021/10/31 04:32:16;;;;;;;7.53;4.95;;;11.70;90.50;;;;;;5089432;28;20030;-83
2021/10/31 04:34:41;;;;;;;8.18;4.97;;;11.70;90.50;;;;;;5106282;28;20127;-83
2021/10/31 04:37:07;;;;;;;6.57;4.75;;;11.60;90.50;;;;;;5106246;28;20056;-82
2021/10/31 04:39:33;;;;;;;7.88;5.22;;;11.60;90.50;;;;;;5089126;28;20545;-82
2021/10/31 04:42:04;;;;;;;6.68;5.07;;;11.60;90.50;;;;;;5106064;28;20392;-82
2021/10/31 04:44:30;;;;;;;6.07;5.13;;;11.60;90.50;;;;;;5089177;28;20020;-82
2021/10/31 04:46:57;;;;;;;7.65;5.25;;;11.60;90.50;;;;;;5106382;28;20507;-83
2021/10/31 04:49:22;;;;;;;6.28;5.10;;;11.60;90.50;;;;;;5106274;28;20067;-83
2021/10/31 04:51:48;;;;;;;8.60;5.07;;;11.50;90.50;;;;;;5106219;28;20125;-82
2021/10/31 04:54:14;;;;;;;7.22;5.13;;;11.50;90.50;;;;;;5106284;28;20024;-84
2021/10/31 05:00:06;;;;;;;8.55;5.82;;;11.50;90.50;;;;;;5073444;28;20047;-84
2021/10/31 05:02:33;;;;;;;9.25;5.47;;;11.40;90.50;;;;;;5106227;28;20420;-84
2021/10/31 05:04:58;;;;;;;7.15;5.18;;;11.40;90.60;;;;;;5073355;28;20020;-81
2021/10/31 05:07:24;;;;;;;6.68;4.55;;;11.40;90.60;;;;;;5106125;28;20081;-83
2021/10/31 05:09:50;;;;;;;8.50;5.85;;;11.30;90.60;;;;;;5106183;28;20108;-83
2021/10/31 05:12:16;;;;;;;7.97;5.57;;;11.30;90.60;;;;;;5073796;28;20037;-83
2021/10/31 05:14:42;;;;;;;7.35;5.63;;;11.30;90.60;;;;;;5076544;28;20495;-83
2021/10/31 05:17:08;;;;;;;7.45;5.10;;;11.20;90.60;;;;;;5110422;28;20025;-83
2021/10/31 05:19:33;;;;;;;7.18;5.10;;;11.20;90.60;;;;;;5110350;28;20514;-83
2021/10/31 05:21:59;;;;;;;8.15;5.10;;;11.20;90.60;;;;;;5110071;28;20052;-83
2021/10/31 05:24:25;;;;;;;8.60;5.65;;;11.10;90.60;;;;;;5093005;28;20091;-83
2021/10/31 05:26:50;;;;;;;7.82;5.03;;;11.10;90.90;;;;;;5110143;28;20028;-83
2021/10/31 05:29:16;;;;;;;8.30;5.35;;;11.10;90.70;;;;;;5093271;28;20492;-84
2021/10/31 05:31:42;;;;;;;6.82;5.65;;;11.10;90.70;;;;;;5110411;28;20377;-84
2021/10/31 05:34:08;;;;;;;6.82;5.18;;;11.10;90.70;;;;;;5093748;28;20087;-84
2021/10/31 05:36:35;;;;;;;9.43;5.75;;;11.00;90.70;;;;;;5110088;28;20051;-83
2021/10/31 05:39:01;;;;;;;9.70;5.97;;;11.00;90.70;;;;;;5109958;28;20025;-82
2021/10/31 05:41:27;;;;;;;7.88;5.68;;;11.00;90.70;;;;;;5110094;28;20028;-83
2021/10/31 05:43:52;;;;;;;8.68;6.10;;;11.00;90.70;;;;;;5110490;28;20115;-83
2021/10/31 05:46:18;;;;;;;6.78;5.55;;;11.00;90.70;;;;;;5110165;28;20527;-83
2021/10/31 05:48:44;;;;;;;7.15;5.75;;;10.90;90.70;;;;;;5076959;28;20043;-83
2021/10/31 05:51:09;;;;;;;8.63;6.15;;;10.90;90.70;;;;;;5092597;28;20029;-82
2021/10/31 05:53:35;;;;;;;7.97;6.38;;;10.90;90.70;;;;;;5092567;28;20042;-83
2021/10/31 05:56:01;;;;;;;9.20;6.43;;;10.80;90.70;;;;;;5109502;28;20048;-83
2021/10/31 05:58:26;;;;;;;10.00;6.35;;;10.80;90.70;;;;;;5109712;28;20029;-83
2021/10/31 06:00:53;;;;;;;7.40;5.55;;;10.80;90.70;;;;;;5109532;28;20139;-83
2021/10/31 06:03:18;;;;;;;8.15;6.13;;;10.70;90.70;;;;;;5109175;28;20467;-83
2021/10/31 06:05:46;;;;;;;8.00;6.03;;;10.70;90.70;;;;;;5076473;28;20025;-83
2021/10/31 06:08:16;;;;;;;7.18;5.63;;;10.70;90.70;;;;;;5092084;28;20028;-82
2021/10/31 06:10:43;;;;;;;8.93;6.05;;;10.70;90.80;;;;;;5109421;28;20396;-83
2021/10/31 06:13:09;;;;;;;7.13;6.15;;;10.70;90.70;;;;;;5109246;28;20035;-82
2021/10/31 06:15:35;;;;;;;7.80;6.22;;;10.70;90.70;;;;;;5109725;28;20480;-83
2021/10/31 06:18:00;;;;;;;7.70;6.00;;;10.70;90.80;;;;;;5075323;28;20039;-82
2021/10/31 06:20:26;;;;;;;8.15;6.00;;;10.70;90.80;;;;;;5109798;28;20028;-83
2021/10/31 06:22:52;;;;;;;8.23;5.97;;;10.70;90.70;;;;;;5076746;28;20033;-83
2021/10/31 06:25:17;;;;;;;8.73;6.15;;;10.70;90.70;;;;;;5108789;28;20082;-83
2021/10/31 06:27:43;;;;;;;9.10;6.45;;;10.70;90.70;;;;;;5076701;28;20024;-83
2021/10/31 06:30:10;;;;;;;10.90;6.70;;;10.70;90.70;;;;;;5108990;28;20029;-83
2021/10/31 06:32:36;;;;;;;7.97;6.40;;;10.80;90.70;;;;;;5092151;28;20543;-82
2021/10/31 06:35:02;;;;;;;8.07;6.20;;;10.80;90.70;;;;;;5108867;28;20049;-82
2021/10/31 06:37:28;;;;;;;9.15;6.32;;;10.80;90.70;;;;;;5076343;28;20051;-82
2021/10/31 06:39:54;;;;;;;8.27;6.53;;;10.80;90.70;;;;;;5108972;28;20156;-82
2021/10/31 06:42:19;;;;;;;9.52;6.43;;;10.90;90.70;;;;;;5076510;28;20034;-83
2021/10/31 06:44:45;;;;;;;8.05;5.95;;;10.90;90.70;;;;;;5109107;28;20027;-82
2021/10/31 06:47:11;;;;;;;7.60;6.50;;;10.90;90.70;;;;;;5109522;28;20029;-83
2021/10/31 06:49:41;;;;;;;8.30;6.88;;;10.90;90.70;;;;;;5109192;28;20032;-83
2021/10/31 06:52:07;;;;;;;8.80;7.07;;;10.90;90.70;;;;;;5109275;28;20032;-83
2021/10/31 06:54:32;;;;;;;7.47;6.22;;;10.90;90.70;;;;;;5109433;28;20047;-82
2021/10/31 06:56:58;;;;;;;7.90;6.75;;;10.90;90.70;;;;;;5108944;28;20481;-83
2021/10/31 06:59:23;;;;;;;9.70;7.25;;;10.90;90.70;;;;;;5091716;28;20033;-83
2021/10/31 07:01:49;;;;;;;8.60;7.10;;;10.90;90.70;;;;;;5091943;28;20017;-83
2021/10/31 07:04:15;;;;;;;9.20;6.70;;;11.00;90.70;;;;;;5108717;28;20033;-83
2021/10/31 07:06:40;;;;;;;8.65;6.55;;;11.00;90.70;;;;;;5091441;28;20055;-84
2021/10/31 07:09:06;;;;;;;7.70;6.47;;;11.00;90.70;;;;;;5091604;28;20033;-83
2021/10/31 07:11:32;;;;;;;8.40;6.57;;;11.00;90.70;;;;;;5092128;28;20388;-82
2021/10/31 07:13:57;;;;;;;8.00;6.78;;;11.00;90.70;;;;;;5092068;28;20021;-84
2021/10/31 07:16:23;;;;;;;9.65;6.70;;;11.00;90.70;;;;;;5092138;28;20436;-83
2021/10/31 07:18:49;;;;;;;9.20;6.82;;;11.10;90.70;;;;;;5091483;28;20098;-82
2021/10/31 07:21:14;;;;;;;10.25;7.22;;;11.00;90.70;;;;;;5092429;28;20056;-83
2021/10/31 07:23:40;;;;;;;8.20;7.20;;;11.00;90.70;;;;;;5091970;28;20388;-83
2021/10/31 07:26:07;;;;;;;8.15;7.10;;;11.10;90.70;;;;;;5091209;28;20017;-83
2021/10/31 07:28:33;;;;;;;8.52;7.18;;;11.10;90.70;;;;;;5081156;28;20024;-83
2021/10/31 07:31:00;;;;;;;8.57;6.60;;;11.10;90.70;;;;;;5091574;28;20070;-83
2021/10/31 07:33:26;;;;;;;9.30;6.43;;;11.10;90.70;;;;;;5091871;28;20029;-83
2021/10/31 07:35:52;;;;;;;7.70;6.82;;;11.20;90.70;;;;;;5090734;28;20027;-83
2021/10/31 07:38:18;;;;;;;9.00;6.80;;;11.20;90.70;;;;;;5090410;28;20515;-83
2021/10/31 07:40:44;;;;;;;7.78;6.03;;;11.20;90.70;;;;;;5090966;28;20016;-83
2021/10/31 07:43:10;;;;;;;7.07;6.38;;;11.20;90.60;;;;;;5090892;28;20021;-83
2021/10/31 07:45:36;;;;;;;8.60;6.72;;;11.30;90.60;;;;;;5091214;28;20016;-82
2021/10/31 07:48:03;;;;;;;6.78;6.00;;;11.30;90.60;;;;;;5091010;28;20107;-83
2021/10/31 07:50:34;;;;;;;7.10;5.80;;;11.40;90.60;;;;;;5075183;28;20021;-83
2021/10/31 07:53:04;;;;;;;6.47;5.55;;;11.40;90.60;;;;;;5090910;28;20024;-83
2021/10/31 07:55:32;;;;;;;6.75;5.35;;;11.50;90.60;;;;;;5090584;28;20040;-83
2021/10/31 07:57:59;;;;;;;5.70;5.10;;;11.50;90.50;;;;;;5075040;28;20418;-84
2021/10/31 08:00:26;;;;;;;5.40;4.90;;;11.50;90.50;;;;;;5090764;28;20070;-84
2021/10/31 08:02:53;;;;;;;6.05;5.43;;;11.60;90.50;;;;;;5092938;28;20412;-84
2021/10/31 08:05:21;;;;;;;5.90;5.05;;;11.60;90.50;;;;;;5093254;28;20037;-84
2021/10/31 08:07:47;;;;;;;5.90;5.15;;;11.60;90.50;;;;;;5093205;28;20540;-83
2021/10/31 08:10:13;;;;;;;6.95;5.20;;;11.70;90.40;;;;;;5093636;28;20032;-83
2021/10/31 08:12:39;;;;;;;5.65;5.15;;;11.70;90.40;;;;;;5093647;28;20063;-84
2021/10/31 08:15:05;;;;;;;8.25;5.70;;;11.70;90.40;;;;;;5093301;28;20039;-84
2021/10/31 08:17:31;;;;;;;7.70;4.82;;;11.80;90.40;;;;;;5093048;28;20542;-84
2021/10/31 08:19:56;;;;;;;6.22;5.00;;;11.80;90.40;;;;;;5092928;28;20024;-83
2021/10/31 08:22:22;;;;;;;6.07;5.47;;;11.80;90.40;;;;;;5092795;28;20598;-82
2021/10/31 08:24:47;;;;;;;6.80;5.53;;;11.90;90.40;;;;;;5093988;28;20046;-84
2021/10/31 08:27:15;;;;;;;5.40;4.90;;;11.90;90.40;;;;;;5093284;28;20050;-84
2021/10/31 08:29:41;;;;;;;6.10;5.18;;;12.00;90.30;;;;;;5093882;28;20032;-85
2021/10/31 08:32:08;;;;;;;6.75;5.40;;;12.00;90.30;;;;;;5095876;28;20035;-84
2021/10/31 08:34:34;;;;;;;5.63;5.13;;;12.10;90.30;;;;;;5080626;28;20484;-84
2021/10/31 08:36:59;;;;;;;5.70;4.95;;;12.10;90.20;;;;;;5093359;28;20051;-81
2021/10/31 08:42:47;;;;;;;5.40;4.78;;;12.20;90.20;;;;;;5077025;28;20023;-85
2021/10/31 08:45:13;;;;;;;5.47;4.68;;;12.20;90.10;;;;;;5092680;28;20472;-84
2021/10/31 08:47:39;;;;;;;4.45;4.03;;;12.20;90.10;;;;;;5096925;28;20054;-84
2021/10/31 08:50:05;;;;;;;4.05;3.65;;;12.30;90.10;;;;;;5095967;28;20029;-85
2021/10/31 08:52:31;;;;;;;5.15;4.30;;;12.30;90.20;;;;;;5091326;28;20423;-77
2021/10/31 08:54:57;;;;;;;5.13;4.47;;;12.30;90.20;;;;;;5088343;28;20051;-77
2021/10/31 08:57:22;;;;;;;5.03;4.05;;;12.40;90.20;;;;;;5088794;28;20016;-78
2021/10/31 08:59:48;;;;;;;5.80;4.28;;;12.40;90.10;;;;;;5088476;28;20031;-78
2021/10/31 09:02:15;;;;;;;5.85;4.00;;;12.50;90.10;;;;;;5088980;28;20019;-79
2021/10/31 09:04:41;;;;;;;4.60;4.20;;;12.50;90.10;;;;;;5089193;28;20032;-78
2021/10/31 09:07:09;;;;;;;4.40;4.00;;;12.50;90.00;;;;;;5072026;28;20090;-78
2021/10/31 09:09:36;;;;;;;4.35;3.95;;;12.60;90.00;;;;;;5088775;28;20012;-77
2021/10/31 09:12:02;;;;;;;4.22;3.83;;;12.60;90.00;;;;;;5089515;28;20488;-79
2021/10/31 09:14:28;;;;;;;5.03;4.18;;;12.60;89.90;;;;;;5088941;28;20105;-77
2021/10/31 09:16:53;;;;;;;4.75;4.00;;;12.70;89.80;;;;;;5088650;28;20052;-77
2021/10/31 09:19:19;;;;;;;4.85;3.72;;;12.70;89.80;;;;;;5088494;28;20060;-77
2021/10/31 09:21:46;;;;;;;4.47;3.72;;;12.80;89.70;;;;;;5088828;28;20419;-78
2021/10/31 09:24:12;;;;;;;4.55;4.10;;;12.80;89.60;;;;;;5088671;28;20027;-77
2021/10/31 09:26:40;;;;;;;4.20;3.63;;;12.80;89.50;;;;;;5089124;28;20028;-81
2021/10/31 09:32:34;;;;;;;5.10;3.70;;;13.00;89.40;;;;;;5073665;28;20384;-79
2021/10/31 09:35:02;;;;;;;4.35;3.80;;;13.10;89.30;;;;;;5088380;28;20183;-79
2021/10/31 09:37:30;;;;;;;4.60;3.63;;;13.10;89.00;;;;;;5088921;28;20029;-82
2021/10/31 09:40:00;;;;;;;5.50;3.40;;;13.20;89.00;;;;;;5088441;28;20031;-79
2021/10/31 09:42:26;;;;;;;4.68;3.40;;;13.20;88.80;;;;;;5071647;28;20029;-80
2021/10/31 09:44:52;;;;;;;3.78;3.35;;;13.20;88.60;;;;;;5072973;28;20468;-78
2021/10/31 09:47:26;;;;;;;6.72;3.20;;;13.30;88.60;;;;;;5088473;28;20020;-79
2021/10/31 09:49:53;;;;;;;3.47;2.97;;;13.30;88.40;;;;;;5088788;28;20554;-78
2021/10/31 09:52:20;;;;;;;3.22;2.92;;;13.40;88.30;;;;;;5088368;28;20050;-79
2021/10/31 09:54:46;;;;;;;3.38;2.80;;;13.40;88.10;;;;;;5074267;28;20024;-80
2021/10/31 09:57:13;;;;;;;2.92;2.63;;;13.50;88.00;;;;;;5089020;28;20477;-81
2021/10/31 09:59:54;;;;;;;3.00;2.70;;;13.50;87.90;;;;;;5092235;28;20031;-82
2021/10/31 10:02:46;;;;;;;3.88;3.10;;;13.60;87.80;;;;;;5093781;28;20399;-81
2021/10/31 10:05:21;;;;;;;3.05;2.75;;;13.60;87.40;;;;;;5092396;28;20105;-80
2021/10/31 10:11:18;;;;;;;2.88;2.53;;;13.70;87.20;;;;;;5077754;28;20027;-80
2021/10/31 10:13:44;;;;;;;2.95;2.40;;;13.80;87.10;;;;;;5092371;28;20056;-80
2021/10/31 10:16:23;;;;;;;3.42;2.65;;;13.90;87.00;;;;;;5077169;28;20024;-79
2021/10/31 10:18:49;;;;;;;3.30;3.00;;;13.90;86.70;;;;;;5092733;28;20028;-78
2021/10/31 10:21:24;;;;;;;3.53;2.83;;;13.90;86.60;;;;;;5076103;28;20017;-80
2021/10/31 10:27:13;;;;;;;4.15;2.55;;;14.00;86.40;;;;;;5081184;28;20073;-84
2021/10/31 10:29:43;;;;;;;2.90;2.20;;;14.00;86.40;;;;;;5097122;28;20025;-85
2021/10/31 10:32:13;;;;;;;2.55;2.25;;;14.10;86.40;;;;;;5099279;28;20484;-87
2021/10/31 10:34:46;;;;;;;3.42;2.30;;;14.10;86.50;;;;;;5095183;28;20032;-79
2021/10/31 10:37:25;;;;;;;2.47;2.28;;;14.10;86.30;;;;;;5108490;28;20074;-79
2021/10/31 10:40:05;;;;;;;5.22;2.20;;;14.20;86.20;;;;;;5091540;28;20033;-80
2021/10/31 10:42:36;;;;;;;2.30;2.10;;;14.30;86.00;;;;;;5108862;28;20035;-80
2021/10/31 10:45:08;;;;;;;2.30;2.10;;;14.40;85.80;;;;;;5092039;28;20046;-78
2021/10/31 10:47:40;;;;;;;4.80;2.30;;;14.40;85.70;;;;;;5090634;28;20064;-76
2021/10/31 10:50:13;;;;;;;2.22;1.73;;;14.40;85.50;;;;;;5091401;28;20063;-78
2021/10/31 10:56:15;;;;;;;2.10;1.90;;;14.60;85.30;;;;;;5080454;28;20063;-80
2021/10/31 10:58:50;;;;;;;2.50;1.70;;;14.60;84.90;;;;;;5091194;28;20040;-80
2021/10/31 11:01:16;;;;;;;3.15;1.80;;;14.70;84.70;;;;;;5090979;28;20028;-79
2021/10/31 11:03:42;;;;;;;2.05;1.77;;;14.80;84.50;;;;;;5090499;28;20391;-79
2021/10/31 11:06:08;;;;;;;2.15;1.50;;;14.90;84.30;;;;;;5090363;28;20077;-79
2021/10/31 11:08:34;;;;;;;2.25;1.60;;;15.10;84.10;;;;;;5090273;28;20059;-79
2021/10/31 11:11:13;;;;;;;1.38;1.20;;;15.10;84.00;;;;;;5089222;28;20388;-79
2021/10/31 11:13:46;;;;;;;1.50;1.40;;;15.20;83.40;;;;;;5091042;28;20090;-79
2021/10/31 11:16:13;;;;;;;1.80;1.58;;;15.30;83.20;;;;;;5090400;28;20036;-79
2021/10/31 11:18:39;;;;;;;2.33;1.70;;;15.30;82.90;;;;;;5074472;28;20036;-79
2021/10/31 11:21:05;;;;;;;2.60;1.45;;;15.40;82.90;;;;;;5075695;28;20592;-79
2021/10/31 11:23:34;;;;;;;1.70;1.27;;;15.40;82.70;;;;;;5089955;28;20025;-79
2021/10/31 11:26:03;;;;;;;1.45;1.35;;;15.50;82.60;;;;;;5089954;28;20434;-78
2021/10/31 11:28:30;;;;;;;2.10;1.80;;;15.60;82.70;;;;;;5089909;28;20025;-79
2021/10/31 11:30:57;;;;;;;1.75;1.55;;;15.60;82.20;;;;;;5089743;28;20034;-78
2021/10/31 11:33:23;;;;;;;2.38;1.50;;;15.70;82.00;;;;;;5075592;28;20036;-80
2021/10/31 11:35:50;;;;;;;2.03;1.38;;;15.80;81.90;;;;;;5090559;28;20400;-80
2021/10/31 11:38:19;;;;;;;1.50;1.38;;;15.70;81.50;;;;;;5091086;28;20052;-79
2021/10/31 11:41:10;;;;;;;3.05;1.48;;;15.60;81.50;;;;;;5094265;28;20493;-83
2021/10/31 11:43:39;;;;;;;1.92;1.63;;;15.60;81.60;;;;;;5101152;28;20043;-83
2021/10/31 11:46:05;;;;;;;1.50;1.40;;;15.60;81.90;;;;;;5104101;28;20028;-82
2021/10/31 11:48:34;;;;;;;2.15;1.42;;;15.60;82.00;;;;;;5105760;28;20039;-84
2021/10/31 11:51:10;;;;;;;2.60;1.73;;;15.50;82.60;;;;;;5102694;28;20028;-84
2021/10/31 11:53:47;;;;;;;1.52;1.40;;;15.50;82.70;;;;;;5116902;28;20559;-84
2021/10/31 11:56:24;;;;;;;2.20;1.63;;;15.50;82.70;;;;;;5116400;28;20507;-85
2021/10/31 11:58:55;;;;;;;1.48;1.38;;;15.40;83.70;;;;;;5095535;28;20172;-84
2021/10/31 12:01:36;;;;;;;2.15;1.75;;;15.40;83.60;;;;;;5101378;28;20058;-84
2021/10/31 12:04:24;;;;;;;2.28;1.58;;;15.40;83.70;;;;;;5121341;28;20028;-84
2021/10/31 12:06:50;;;;;;;2.60;1.60;;;15.30;84.00;;;;;;5069415;28;20039;-84
2021/10/31 12:09:27;;;;;;;1.70;1.40;;;15.30;83.80;;;;;;5097529;28;20039;-84
2021/10/31 12:11:56;;;;;;;1.83;1.20;;;15.30;84.00;;;;;;5097629;28;20113;-84
2021/10/31 12:14:46;;;;;;;2.88;1.40;;;15.30;84.10;;;;;;5115731;28;20067;-84
2021/10/31 12:17:12;;;;;;;2.13;1.40;;;15.30;84.40;;;;;;5102548;28;20035;-84
2021/10/31 12:19:44;;;;;;;2.17;1.42;;;15.30;84.60;;;;;;5087848;28;20032;-83
2021/10/31 12:22:11;;;;;;;1.58;1.33;;;15.30;84.40;;;;;;5101859;28;20036;-83
2021/10/31 12:24:51;;;;;;;1.63;1.38;;;15.30;84.40;;;;;;5087401;28;20016;-84
2021/10/31 12:27:26;;;;;;;1.52;1.13;;;15.30;84.20;;;;;;5103443;28;20384;-83
2021/10/31 12:30:20;;;;;;;2.08;1.30;;;15.40;84.20;;;;;;5084960;28;20070;-83
2021/10/31 12:32:46;;;;;;;2.60;1.38;;;15.40;84.20;;;;;;5102631;28;20403;-83
2021/10/31 12:35:40;;;;;;;3.40;1.35;;;15.40;84.20;;;;;;5102843;28;20038;-84
2021/10/31 12:38:24;;;;;;;2.53;1.20;;;15.50;84.10;;;;;;5101466;28;20036;-83
2021/10/31 12:41:05;;;;;;;1.48;1.30;;;15.50;84.00;;;;;;5117795;28;20029;-83
2021/10/31 12:43:44;;;;;;;1.83;1.35;;;15.50;84.00;;;;;;5119440;28;20105;-83
2021/10/31 12:46:21;;;;;;;1.77;1.00;;;15.50;83.80;;;;;;5082834;28;20033;-84
2021/10/31 12:48:53;;;;;;;1.85;1.30;;;15.50;83.60;;;;;;5101210;28;20036;-83
2021/10/31 12:51:44;;;;;;;1.85;1.50;;;15.50;83.40;;;;;;5085931;28;20028;-84
2021/10/31 12:54:17;;;;;;;1.23;1.13;;;15.60;83.30;;;;;;5099195;28;20037;-84
2021/10/31 12:56:42;;;;;;;1.40;1.20;;;15.60;83.30;;;;;;5100044;28;20044;-84
2021/10/31 12:59:12;;;;;;;2.53;1.15;;;15.60;83.40;;;;;;5100143;28;20047;-84
2021/10/31 13:01:38;;;;;;;1.40;1.30;;;15.70;83.30;;;;;;5102900;28;20027;-83
2021/10/31 13:07:46;;;;;;;1.60;1.05;;;15.80;83.10;;;;;;5086739;28;20051;-84
2021/10/31 13:10:23;;;;;;;1.60;1.00;;;15.90;83.10;;;;;;5097366;28;20040;-84
2021/10/31 13:13:15;;;;;;;1.42;1.23;;;15.90;83.10;;;;;;5106704;28;20055;-81
2021/10/31 13:15:43;;;;;;;1.92;1.38;;;15.90;83.00;;;;;;5064640;28;20044;-82
2021/10/31 13:18:28;;;;;;;2.75;1.40;;;16.00;83.00;;;;;;5088281;28;20357;-81
2021/10/31 13:21:00;;;;;;;1.27;1.17;;;16.00;82.80;;;;;;5072870;28;20032;-81
2021/10/31 13:23:28;;;;;;;2.28;1.33;;;16.00;82.80;;;;;;5090799;28;20037;-81
2021/10/31 13:26:00;;;;;;;2.25;1.50;;;16.00;82.70;;;;;;5092403;28;20036;-81